createdAt,value
2018-06-01T00:00:33.039Z,23.52
2018-06-01T00:01:33.068Z,23.45
2018-06-01T00:02:33.099Z,23.53
2018-06-01T00:03:33.129Z,23.39
2018-06-01T00:04:33.173Z,23.35
2018-06-01T00:05:33.189Z,23.42
2018-06-01T00:06:33.219Z,23.39
2018-06-01T00:07:33.247Z,23.37
2018-06-01T00:08:33.278Z,23.39
2018-06-01T00:09:33.309Z,23.38
2018-06-01T00:10:33.334Z,23.34
2018-06-01T00:11:33.367Z,23.34
2018-06-01T00:12:33.394Z,23.35
2018-06-01T00:13:33.420Z,23.34
2018-06-01T00:14:33.453Z,23.23
2018-06-01T00:15:33.493Z,23.25
2018-06-01T00:16:33.514Z,23.23
2018-06-01T00:17:33.539Z,23.16
2018-06-01T00:18:33.579Z,23.15
2018-06-01T00:19:33.598Z,23.21
2018-06-01T00:20:33.627Z,23.07
2018-06-01T00:21:33.661Z,23.14
2018-06-01T00:22:33.702Z,23.15
2018-06-01T00:23:33.721Z,23.12
2018-06-01T00:24:33.748Z,23.12
2018-06-01T00:25:33.773Z,23.09
2018-06-01T00:26:33.808Z,23.12
2018-06-01T00:27:33.834Z,23.07
2018-06-01T00:28:33.862Z,23.04
2018-06-01T00:29:33.895Z,23.06
2018-06-01T00:30:33.923Z,23.00
2018-06-01T00:31:33.952Z,23.07
2018-06-01T00:32:33.978Z,23.07
2018-06-01T00:33:34.009Z,23.09
2018-06-01T00:34:34.043Z,23.12
2018-06-01T00:35:34.068Z,23.07
2018-06-01T00:36:34.098Z,23.04
2018-06-01T00:37:34.128Z,22.93
2018-06-01T00:38:34.162Z,23.03
2018-06-01T00:39:34.185Z,22.84
2018-06-01T00:40:34.213Z,22.89
2018-06-01T00:41:34.242Z,22.86
2018-06-01T00:42:34.274Z,22.86
2018-06-01T00:43:34.303Z,22.82
2018-06-01T00:44:34.333Z,22.88
2018-06-01T00:45:34.358Z,22.88
2018-06-01T00:46:34.393Z,22.99
2018-06-01T00:47:34.432Z,22.88
2018-06-01T00:48:34.451Z,22.70
2018-06-01T00:49:34.482Z,22.72
2018-06-01T00:50:34.510Z,22.61
2018-06-01T00:51:34.541Z,22.63
2018-06-01T00:52:34.566Z,22.63
2018-06-01T00:53:34.594Z,22.72
2018-06-01T00:54:34.622Z,22.66
2018-06-01T00:55:34.653Z,22.67
2018-06-01T00:56:34.685Z,22.66
2018-06-01T00:57:34.707Z,22.59
2018-06-01T00:58:34.737Z,22.60
2018-06-01T00:59:34.771Z,22.56
2018-06-01T01:00:34.799Z,22.56
2018-06-01T01:01:34.831Z,22.54
2018-06-01T01:02:34.857Z,22.59
2018-06-01T01:03:34.892Z,22.59
2018-06-01T01:04:34.916Z,22.75
2018-06-01T01:05:34.946Z,22.74
2018-06-01T01:06:34.975Z,22.60
2018-06-01T01:07:35.001Z,22.57
2018-06-01T01:08:35.032Z,22.56
2018-06-01T01:09:35.070Z,22.56
2018-06-01T01:10:35.091Z,22.48
2018-06-01T01:11:35.117Z,22.54
2018-06-01T01:12:35.152Z,22.57
2018-06-01T01:13:35.179Z,22.56
2018-06-01T01:14:35.207Z,22.57
2018-06-01T01:15:35.237Z,22.60
2018-06-01T01:16:35.263Z,22.59
2018-06-01T01:17:35.293Z,22.67
2018-06-01T01:18:35.323Z,22.67
2018-06-01T01:19:35.353Z,22.74
2018-06-01T01:20:35.382Z,22.61
2018-06-01T01:21:35.407Z,22.49
2018-06-01T01:22:35.435Z,22.48
2018-06-01T01:23:35.469Z,22.45
2018-06-01T01:24:35.490Z,22.41
2018-06-01T01:25:35.522Z,22.46
2018-06-01T01:26:35.555Z,22.41
2018-06-01T01:27:35.579Z,22.48
2018-06-01T01:28:35.610Z,22.46
2018-06-01T01:29:35.643Z,22.46
2018-06-01T01:30:35.674Z,22.45
2018-06-01T01:31:35.698Z,22.41
2018-06-01T01:32:35.724Z,22.36
2018-06-01T01:33:35.755Z,22.29
2018-06-01T01:34:35.785Z,22.31
2018-06-01T01:35:35.819Z,22.41
2018-06-01T01:36:35.843Z,22.36
2018-06-01T01:37:35.870Z,22.27
2018-06-01T01:38:35.907Z,22.23
2018-06-01T01:39:35.934Z,22.19
2018-06-01T01:40:35.957Z,22.21
2018-06-01T01:41:35.988Z,22.17
2018-06-01T01:42:36.015Z,22.14
2018-06-01T01:43:36.044Z,22.14
2018-06-01T01:44:36.069Z,22.08
2018-06-01T01:45:36.104Z,22.06
2018-06-01T01:46:36.129Z,22.15
2018-06-01T01:47:36.162Z,22.09
2018-06-01T01:48:36.194Z,22.02
2018-06-01T01:49:36.214Z,21.93
2018-06-01T01:50:36.250Z,21.83
2018-06-01T01:51:36.274Z,21.86
2018-06-01T01:52:36.303Z,21.83
2018-06-01T01:53:36.329Z,21.79
2018-06-01T01:54:36.365Z,21.81
2018-06-01T01:55:36.391Z,21.79
2018-06-01T01:56:36.421Z,21.83
2018-06-01T01:57:36.449Z,21.94
2018-06-01T01:58:36.474Z,21.83
2018-06-01T01:59:36.511Z,21.86
2018-06-01T02:00:36.535Z,21.81
2018-06-01T02:01:36.565Z,21.81
2018-06-01T02:02:36.594Z,21.86
2018-06-01T02:03:36.620Z,21.83
2018-06-01T02:04:36.652Z,21.91
2018-06-01T02:05:36.680Z,21.90
2018-06-01T02:06:36.704Z,21.85
2018-06-01T02:07:36.735Z,21.89
2018-06-01T02:08:36.764Z,21.86
2018-06-01T02:09:36.795Z,21.86
2018-06-01T02:10:36.820Z,21.82
2018-06-01T02:11:36.850Z,21.79
2018-06-01T02:12:36.883Z,21.82
2018-06-01T02:13:36.911Z,21.77
2018-06-01T02:14:36.947Z,21.74
2018-06-01T02:15:36.964Z,21.75
2018-06-01T02:16:36.995Z,21.82
2018-06-01T02:17:37.024Z,21.85
2018-06-01T02:18:37.049Z,21.79
2018-06-01T02:19:37.083Z,21.82
2018-06-01T02:20:37.107Z,21.79
2018-06-01T02:21:37.134Z,21.93
2018-06-01T02:22:37.164Z,21.86
2018-06-01T02:23:37.194Z,21.86
2018-06-01T02:24:37.223Z,21.86
2018-06-01T02:25:37.253Z,21.82
2018-06-01T02:26:37.279Z,21.85
2018-06-01T02:27:37.309Z,21.89
2018-06-01T02:28:37.340Z,21.83
2018-06-01T02:29:37.369Z,21.86
2018-06-01T02:30:37.393Z,21.89
2018-06-01T02:31:37.430Z,21.83
2018-06-01T02:32:37.456Z,21.86
2018-06-01T02:33:37.492Z,21.83
2018-06-01T02:34:37.509Z,21.83
2018-06-01T02:35:37.539Z,21.83
2018-06-01T02:36:37.575Z,21.79
2018-06-01T02:37:37.605Z,21.63
2018-06-01T02:38:37.629Z,21.70
2018-06-01T02:39:37.661Z,21.83
2018-06-01T02:40:37.683Z,21.73
2018-06-01T02:41:37.716Z,21.81
2018-06-01T02:42:37.744Z,21.81
2018-06-01T02:43:37.769Z,21.81
2018-06-01T02:44:37.799Z,21.83
2018-06-01T02:45:37.822Z,21.71
2018-06-01T02:46:37.852Z,21.73
2018-06-01T02:47:37.885Z,21.70
2018-06-01T02:48:37.911Z,21.73
2018-06-01T02:49:37.942Z,21.68
2018-06-01T02:50:37.976Z,21.67
2018-06-01T02:51:38.002Z,21.55
2018-06-01T02:52:38.023Z,21.55
2018-06-01T02:53:38.053Z,21.59
2018-06-01T02:54:38.082Z,21.52
2018-06-01T02:55:38.113Z,21.52
2018-06-01T02:56:38.146Z,21.55
2018-06-01T02:57:38.172Z,21.51
2018-06-01T02:58:38.198Z,21.61
2018-06-01T02:59:38.233Z,21.67
2018-06-01T03:00:38.259Z,21.66
2018-06-01T03:01:38.287Z,21.73
2018-06-01T03:02:38.316Z,21.64
2018-06-01T03:03:38.343Z,21.63
2018-06-01T03:04:38.372Z,21.56
2018-06-01T03:05:38.401Z,21.52
2018-06-01T03:06:38.429Z,21.56
2018-06-01T03:07:38.453Z,21.55
2018-06-01T03:08:38.482Z,21.48
2018-06-01T03:09:38.513Z,21.59
2018-06-01T03:10:38.540Z,21.49
2018-06-01T03:11:38.569Z,21.59
2018-06-01T03:12:38.601Z,21.59
2018-06-01T03:13:38.627Z,21.61
2018-06-01T03:14:38.658Z,21.51
2018-06-01T03:15:38.687Z,21.53
2018-06-01T03:16:38.711Z,21.42
2018-06-01T03:17:38.749Z,21.36
2018-06-01T03:18:38.767Z,21.36
2018-06-01T03:19:38.797Z,21.40
2018-06-01T03:20:38.828Z,21.46
2018-06-01T03:21:38.858Z,21.46
2018-06-01T03:22:38.881Z,21.51
2018-06-01T03:23:38.911Z,21.56
2018-06-01T03:24:38.941Z,21.56
2018-06-01T03:25:38.967Z,21.56
2018-06-01T03:26:38.996Z,21.49
2018-06-01T03:27:39.027Z,21.55
2018-06-01T03:28:39.050Z,21.51
2018-06-01T03:29:39.082Z,21.46
2018-06-01T03:30:39.111Z,21.46
2018-06-01T03:31:39.146Z,21.45
2018-06-01T03:32:39.167Z,21.52
2018-06-01T03:33:39.200Z,21.36
2018-06-01T03:34:39.226Z,21.42
2018-06-01T03:35:39.251Z,21.38
2018-06-01T03:36:39.285Z,21.42
2018-06-01T03:37:39.315Z,21.49
2018-06-01T03:38:39.341Z,21.56
2018-06-01T03:39:39.370Z,21.56
2018-06-01T03:40:39.400Z,21.52
2018-06-01T03:41:39.430Z,21.53
2018-06-01T03:42:39.452Z,21.51
2018-06-01T03:43:39.480Z,21.46
2018-06-01T03:44:39.511Z,21.66
2018-06-01T03:45:39.536Z,21.61
2018-06-01T03:46:39.567Z,21.64
2018-06-01T03:47:39.595Z,21.63
2018-06-01T03:48:39.625Z,21.53
2018-06-01T03:49:39.653Z,21.49
2018-06-01T03:50:39.679Z,21.49
2018-06-01T03:51:39.714Z,21.55
2018-06-01T03:52:39.749Z,21.48
2018-06-01T03:53:39.767Z,21.45
2018-06-01T03:54:39.799Z,21.46
2018-06-01T03:55:39.826Z,21.51
2018-06-01T03:56:39.850Z,21.52
2018-06-01T03:57:39.884Z,21.53
2018-06-01T03:58:39.911Z,21.49
2018-06-01T03:59:39.940Z,21.56
2018-06-01T04:00:39.965Z,21.51
2018-06-01T04:01:39.995Z,21.58
2018-06-01T04:02:40.027Z,21.64
2018-06-01T04:03:40.055Z,21.52
2018-06-01T04:04:40.085Z,21.53
2018-06-01T04:05:40.110Z,21.63
2018-06-01T04:06:40.140Z,21.66
2018-06-01T04:07:40.170Z,21.67
2018-06-01T04:08:40.196Z,21.66
2018-06-01T04:09:40.226Z,21.52
2018-06-01T04:10:40.251Z,21.64
2018-06-01T04:11:40.286Z,21.64
2018-06-01T04:12:40.313Z,21.67
2018-06-01T04:13:40.339Z,21.59
2018-06-01T04:14:40.369Z,21.56
2018-06-01T04:15:40.396Z,21.59
2018-06-01T04:16:40.425Z,21.64
2018-06-01T04:17:40.455Z,21.58
2018-06-01T04:18:40.486Z,21.55
2018-06-01T04:19:40.510Z,21.58
2018-06-01T04:20:40.539Z,21.59
2018-06-01T04:21:40.569Z,21.67
2018-06-01T04:22:40.596Z,21.63
2018-06-01T04:23:40.627Z,21.63
2018-06-01T04:24:40.650Z,21.71
2018-06-01T04:25:40.679Z,21.68
2018-06-01T04:26:40.709Z,21.66
2018-06-01T04:27:40.791Z,21.61
2018-06-01T04:28:40.769Z,21.70
2018-06-01T04:29:40.805Z,21.74
2018-06-01T04:30:40.830Z,21.73
2018-06-01T04:31:40.854Z,21.71
2018-06-01T04:32:40.879Z,21.70
2018-06-01T04:33:40.908Z,21.75
2018-06-01T04:34:40.939Z,21.74
2018-06-01T04:35:40.973Z,21.68
2018-06-01T04:36:40.995Z,21.70
2018-06-01T04:37:41.029Z,21.71
2018-06-01T04:38:41.055Z,21.71
2018-06-01T04:39:41.084Z,21.71
2018-06-01T04:40:41.113Z,21.71
2018-06-01T04:41:41.143Z,21.67
2018-06-01T04:42:41.170Z,21.64
2018-06-01T04:43:41.200Z,21.64
2018-06-01T04:44:41.225Z,21.68
2018-06-01T04:45:41.254Z,21.66
2018-06-01T04:46:41.284Z,21.66
2018-06-01T04:47:41.309Z,21.71
2018-06-01T04:48:41.344Z,21.63
2018-06-01T04:49:41.371Z,21.64
2018-06-01T04:50:41.399Z,21.56
2018-06-01T04:51:41.424Z,21.56
2018-06-01T04:52:41.457Z,21.66
2018-06-01T04:53:41.484Z,21.53
2018-06-01T04:54:41.509Z,21.63
2018-06-01T04:55:41.539Z,21.61
2018-06-01T04:56:41.568Z,21.66
2018-06-01T04:57:41.598Z,21.70
2018-06-01T04:58:41.630Z,21.77
2018-06-01T04:59:41.657Z,21.83
2018-06-01T05:00:41.683Z,21.73
2018-06-01T05:01:41.716Z,21.71
2018-06-01T05:02:41.742Z,21.73
2018-06-01T05:03:41.768Z,21.74
2018-06-01T05:04:41.799Z,21.67
2018-06-01T05:05:41.829Z,21.74
2018-06-01T05:06:41.858Z,21.81
2018-06-01T05:07:41.884Z,21.82
2018-06-01T05:08:41.917Z,21.75
2018-06-01T05:09:41.943Z,21.83
2018-06-01T05:10:41.973Z,21.85
2018-06-01T05:11:41.998Z,21.82
2018-06-01T05:12:42.027Z,21.81
2018-06-01T05:13:42.053Z,21.86
2018-06-01T05:14:42.083Z,21.90
2018-06-01T05:15:42.113Z,21.83
2018-06-01T05:16:42.208Z,21.96
2018-06-01T05:17:42.167Z,21.89
2018-06-01T05:18:42.200Z,21.83
2018-06-01T05:19:42.228Z,21.86
2018-06-01T05:20:42.257Z,21.81
2018-06-01T05:21:42.286Z,21.82
2018-06-01T05:22:42.315Z,21.81
2018-06-01T05:23:42.344Z,21.89
2018-06-01T05:24:42.370Z,21.85
2018-06-01T05:25:42.398Z,21.90
2018-06-01T05:26:42.430Z,22.02
2018-06-01T05:27:42.457Z,21.91
2018-06-01T05:28:42.488Z,22.05
2018-06-01T05:29:42.514Z,22.05
2018-06-01T05:30:42.547Z,22.14
2018-06-01T05:31:42.577Z,22.14
2018-06-01T05:32:42.606Z,22.12
2018-06-01T05:33:42.632Z,22.20
2018-06-01T05:34:42.661Z,22.29
2018-06-01T05:35:42.691Z,22.30
2018-06-01T05:36:42.718Z,22.33
2018-06-01T05:37:42.746Z,22.35
2018-06-01T05:38:42.771Z,22.35
2018-06-01T05:39:42.802Z,22.33
2018-06-01T05:40:42.831Z,22.39
2018-06-01T05:41:42.860Z,22.41
2018-06-01T05:42:42.886Z,22.42
2018-06-01T05:43:42.920Z,22.46
2018-06-01T05:44:42.943Z,22.52
2018-06-01T05:45:42.976Z,22.56
2018-06-01T05:46:43.006Z,22.49
2018-06-01T05:47:43.033Z,22.42
2018-06-01T05:48:43.066Z,22.52
2018-06-01T05:49:43.090Z,22.57
2018-06-01T05:50:43.116Z,22.63
2018-06-01T05:51:43.146Z,22.61
2018-06-01T05:52:43.176Z,22.75
2018-06-01T05:53:43.203Z,22.64
2018-06-01T05:54:43.241Z,22.75
2018-06-01T05:55:43.265Z,22.75
2018-06-01T05:56:43.290Z,22.85
2018-06-01T05:57:43.322Z,23.01
2018-06-01T05:58:43.352Z,22.96
2018-06-01T05:59:43.382Z,22.91
2018-06-01T06:00:43.411Z,22.96
2018-06-01T06:01:43.439Z,22.93
2018-06-01T06:02:43.465Z,22.89
2018-06-01T06:03:43.494Z,22.99
2018-06-01T06:04:43.521Z,22.91
2018-06-01T06:05:43.557Z,22.93
2018-06-01T06:06:43.580Z,23.04
2018-06-01T06:07:43.611Z,23.00
2018-06-01T06:08:43.641Z,23.04
2018-06-01T06:09:43.674Z,23.07
2018-06-01T06:10:43.696Z,23.06
2018-06-01T06:11:43.731Z,23.04
2018-06-01T06:12:43.761Z,23.09
2018-06-01T06:13:43.786Z,23.09
2018-06-01T06:14:43.817Z,23.07
2018-06-01T06:15:43.845Z,23.09
2018-06-01T06:16:43.877Z,23.16
2018-06-01T06:17:43.908Z,23.12
2018-06-01T06:18:43.959Z,23.12
2018-06-01T06:19:43.961Z,23.07
2018-06-01T06:20:43.993Z,23.18
2018-06-01T06:21:44.019Z,23.07
2018-06-01T06:22:44.054Z,23.04
2018-06-01T06:23:44.079Z,23.15
2018-06-01T06:24:44.115Z,23.23
2018-06-01T06:25:44.160Z,23.22
2018-06-01T06:26:44.164Z,23.26
2018-06-01T06:27:44.195Z,23.22
2018-06-01T06:28:44.220Z,23.29
2018-06-01T06:29:44.250Z,23.25
2018-06-01T06:30:44.282Z,23.42
2018-06-01T06:31:44.312Z,23.42
2018-06-01T06:32:44.340Z,23.42
2018-06-01T06:33:44.363Z,23.52
2018-06-01T06:34:44.404Z,23.54
2018-06-01T06:35:44.423Z,23.56
2018-06-01T06:36:44.453Z,23.56
2018-06-01T06:37:44.549Z,23.54
2018-06-01T06:38:44.513Z,23.63
2018-06-01T06:39:44.548Z,23.69
2018-06-01T06:40:44.574Z,23.64
2018-06-01T06:41:44.601Z,23.68
2018-06-01T06:42:44.634Z,23.69
2018-06-01T06:43:44.663Z,23.63
2018-06-01T06:44:44.690Z,23.82
2018-06-01T06:45:44.721Z,23.75
2018-06-01T06:46:44.750Z,23.81
2018-06-01T06:47:44.781Z,23.81
2018-06-01T06:48:44.803Z,23.84
2018-06-01T06:49:44.843Z,23.93
2018-06-01T06:50:44.863Z,23.82
2018-06-01T06:51:44.900Z,23.87
2018-06-01T06:52:44.924Z,23.86
2018-06-01T06:53:44.954Z,23.92
2018-06-01T06:54:44.984Z,23.87
2018-06-01T06:55:45.013Z,23.92
2018-06-01T06:56:45.044Z,23.89
2018-06-01T06:57:45.107Z,23.86
2018-06-01T06:58:45.129Z,23.94
2018-06-01T06:59:45.131Z,23.96
2018-06-01T07:00:45.166Z,24.05
2018-06-01T07:01:45.189Z,24.02
2018-06-01T07:02:45.266Z,24.11
2018-06-01T07:03:45.249Z,24.16
2018-06-01T07:04:45.278Z,24.14
2018-06-01T07:05:45.310Z,24.09
2018-06-01T07:06:45.339Z,24.12
2018-06-01T07:07:45.369Z,24.04
2018-06-01T07:08:45.394Z,24.02
2018-06-01T07:09:45.423Z,24.02
2018-06-01T07:10:45.468Z,24.15
2018-06-01T07:11:45.486Z,24.21
2018-06-01T07:12:45.515Z,24.21
2018-06-01T07:13:45.548Z,24.27
2018-06-01T07:14:45.576Z,24.21
2018-06-01T07:15:45.606Z,24.21
2018-06-01T07:16:45.632Z,24.36
2018-06-01T07:17:45.667Z,24.36
2018-06-01T07:18:45.694Z,24.45
2018-06-01T07:19:45.719Z,24.33
2018-06-01T07:20:45.747Z,24.39
2018-06-01T07:21:45.782Z,24.44
2018-06-01T07:22:45.810Z,24.37
2018-06-01T07:23:45.844Z,24.46
2018-06-01T07:24:45.868Z,24.44
2018-06-01T07:25:45.898Z,24.44
2018-06-01T07:26:45.929Z,24.59
2018-06-01T07:27:46.034Z,24.59
2018-06-01T07:28:45.991Z,24.61
2018-06-01T07:29:46.013Z,24.63
2018-06-01T07:30:46.044Z,24.71
2018-06-01T07:31:46.073Z,24.68
2018-06-01T07:32:46.104Z,24.75
2018-06-01T07:33:46.149Z,24.77
2018-06-01T07:34:46.161Z,24.84
2018-06-01T07:35:46.193Z,24.83
2018-06-01T07:36:46.222Z,24.82
2018-06-01T07:37:46.251Z,24.82
2018-06-01T07:38:46.293Z,24.67
2018-06-01T07:39:46.312Z,24.70
2018-06-01T07:40:46.348Z,24.67
2018-06-01T07:41:46.374Z,24.66
2018-06-01T07:42:46.402Z,24.75
2018-06-01T07:43:46.431Z,24.84
2018-06-01T07:44:46.458Z,24.80
2018-06-01T07:45:46.492Z,24.84
2018-06-01T07:46:46.542Z,24.86
2018-06-01T07:47:46.553Z,24.90
2018-06-01T07:48:46.586Z,24.94
2018-06-01T07:49:46.608Z,24.94
2018-06-01T07:50:46.642Z,24.99
2018-06-01T07:51:46.672Z,25.04
2018-06-01T07:52:46.703Z,25.08
2018-06-01T07:53:46.732Z,25.04
2018-06-01T07:54:46.756Z,25.08
2018-06-01T07:55:46.791Z,25.17
2018-06-01T07:56:46.825Z,25.05
2018-06-01T07:57:46.851Z,25.20
2018-06-01T07:58:46.880Z,25.20
2018-06-01T07:59:46.909Z,25.22
2018-06-01T08:00:46.939Z,25.16
2018-06-01T08:01:46.975Z,25.30
2018-06-01T08:02:46.998Z,25.24
2018-06-01T08:03:47.031Z,25.29
2018-06-01T08:04:47.057Z,25.38
2018-06-01T08:05:47.092Z,25.35
2018-06-01T08:06:47.117Z,25.34
2018-06-01T08:07:47.157Z,25.34
2018-06-01T08:08:47.179Z,25.30
2018-06-01T08:09:47.211Z,25.35
2018-06-01T08:10:47.245Z,25.31
2018-06-01T08:11:47.269Z,25.42
2018-06-01T08:12:47.300Z,25.39
2018-06-01T08:13:47.332Z,25.39
2018-06-01T08:14:47.418Z,25.39
2018-06-01T08:15:47.387Z,25.49
2018-06-01T08:16:47.421Z,25.48
2018-06-01T08:17:47.448Z,25.67
2018-06-01T08:18:47.478Z,25.61
2018-06-01T08:19:47.506Z,25.76
2018-06-01T08:20:47.539Z,25.69
2018-06-01T08:21:47.566Z,25.81
2018-06-01T08:22:47.603Z,25.78
2018-06-01T08:23:47.619Z,25.76
2018-06-01T08:24:47.659Z,25.81
2018-06-01T08:25:47.681Z,25.89
2018-06-01T08:26:47.720Z,25.93
2018-06-01T08:27:47.750Z,26.00
2018-06-01T08:28:47.772Z,25.96
2018-06-01T08:29:47.800Z,25.81
2018-06-01T08:30:47.837Z,25.83
2018-06-01T08:31:47.873Z,25.78
2018-06-01T08:32:47.895Z,25.76
2018-06-01T08:33:47.928Z,25.90
2018-06-01T08:34:47.956Z,25.91
2018-06-01T08:35:47.989Z,25.91
2018-06-01T08:36:48.016Z,25.93
2018-06-01T08:37:48.049Z,25.89
2018-06-01T08:38:48.074Z,25.86
2018-06-01T08:39:48.114Z,25.89
2018-06-01T08:40:48.142Z,25.97
2018-06-01T08:41:48.168Z,25.97
2018-06-01T08:42:48.195Z,26.06
2018-06-01T08:43:48.225Z,26.16
2018-06-01T08:44:48.254Z,26.19
2018-06-01T08:45:48.285Z,26.19
2018-06-01T08:46:48.315Z,26.28
2018-06-01T08:47:48.348Z,26.16
2018-06-01T08:48:48.374Z,26.08
2018-06-01T08:49:48.404Z,26.12
2018-06-01T08:50:48.436Z,26.16
2018-06-01T08:51:48.471Z,26.28
2018-06-01T08:52:48.498Z,26.24
2018-06-01T08:53:48.525Z,26.32
2018-06-01T08:54:48.555Z,26.38
2018-06-01T08:55:48.584Z,26.29
2018-06-01T08:56:48.614Z,26.44
2018-06-01T08:57:48.648Z,26.39
2018-06-01T08:58:48.675Z,26.39
2018-06-01T08:59:48.708Z,26.50
2018-06-01T09:00:48.760Z,26.50
2018-06-01T09:01:48.763Z,26.50
2018-06-01T09:02:48.804Z,26.53
2018-06-01T09:03:48.828Z,26.54
2018-06-01T09:04:48.860Z,26.51
2018-06-01T09:05:48.890Z,26.51
2018-06-01T09:06:48.917Z,26.68
2018-06-01T09:07:48.947Z,26.65
2018-06-01T09:08:48.979Z,26.57
2018-06-01T09:09:49.008Z,26.66
2018-06-01T09:10:49.045Z,26.69
2018-06-01T09:11:49.073Z,26.61
2018-06-01T09:12:49.100Z,26.69
2018-06-01T09:13:49.130Z,26.76
2018-06-01T09:14:49.166Z,26.84
2018-06-01T09:15:49.196Z,26.78
2018-06-01T09:16:49.285Z,26.83
2018-06-01T09:17:49.253Z,26.93
2018-06-01T09:18:49.284Z,27.01
2018-06-01T09:19:49.338Z,27.01
2018-06-01T09:20:49.342Z,27.02
2018-06-01T09:21:49.378Z,27.02
2018-06-01T09:22:49.406Z,27.06
2018-06-01T09:23:49.436Z,27.18
2018-06-01T09:24:49.468Z,27.20
2018-06-01T09:25:49.493Z,27.33
2018-06-01T09:26:49.527Z,27.40
2018-06-01T09:27:49.558Z,27.39
2018-06-01T09:28:49.587Z,27.34
2018-06-01T09:29:49.635Z,27.50
2018-06-01T09:30:49.646Z,27.49
2018-06-01T09:31:49.677Z,27.50
2018-06-01T09:32:49.708Z,27.53
2018-06-01T09:33:49.740Z,27.52
2018-06-01T09:34:49.775Z,27.65
2018-06-01T09:35:49.805Z,27.63
2018-06-01T09:36:49.842Z,27.66
2018-06-01T09:37:49.856Z,27.71
2018-06-01T09:38:49.893Z,27.66
2018-06-01T09:39:49.926Z,27.72
2018-06-01T09:40:49.957Z,27.83
2018-06-01T09:41:49.987Z,27.87
2018-06-01T09:42:50.022Z,27.93
2018-06-01T09:43:50.043Z,27.88
2018-06-01T09:44:50.076Z,27.93
2018-06-01T09:45:50.112Z,28.01
2018-06-01T09:46:50.140Z,28.03
2018-06-01T09:47:50.172Z,27.93
2018-06-01T09:48:50.203Z,28.05
2018-06-01T09:49:50.226Z,28.13
2018-06-01T09:50:50.256Z,27.99
2018-06-01T09:51:50.291Z,28.13
2018-06-01T09:52:50.316Z,28.11
2018-06-01T09:53:50.350Z,28.09
2018-06-01T09:54:50.381Z,28.11
2018-06-01T09:55:50.416Z,28.21
2018-06-01T09:56:50.446Z,28.17
2018-06-01T09:57:50.477Z,28.35
2018-06-01T09:58:50.505Z,28.38
2018-06-01T09:59:50.530Z,28.35
2018-06-01T10:00:50.560Z,28.45
2018-06-01T10:01:50.596Z,28.42
2018-06-01T10:02:50.631Z,28.55
2018-06-01T10:03:50.659Z,28.52
2018-06-01T10:04:50.685Z,28.50
2018-06-01T10:05:50.725Z,28.57
2018-06-01T10:06:50.752Z,28.54
2018-06-01T10:07:50.789Z,28.65
2018-06-01T10:08:50.811Z,28.60
2018-06-01T10:09:50.842Z,28.62
2018-06-01T10:10:50.881Z,28.77
2018-06-01T10:11:50.909Z,28.82
2018-06-01T10:12:51.148Z,28.87
2018-06-01T10:13:50.966Z,28.87
2018-06-01T10:14:50.996Z,28.83
2018-06-01T10:15:51.030Z,28.94
2018-06-01T10:16:51.060Z,28.98
2018-06-01T10:17:51.111Z,28.91
2018-06-01T10:18:51.119Z,28.89
2018-06-01T10:19:51.158Z,28.91
2018-06-01T10:20:51.180Z,28.97
2018-06-01T10:21:51.221Z,29.12
2018-06-01T10:22:51.258Z,29.17
2018-06-01T10:23:51.274Z,29.15
2018-06-01T10:24:51.304Z,29.14
2018-06-01T10:25:51.342Z,29.33
2018-06-01T10:26:51.373Z,29.29
2018-06-01T10:27:51.397Z,29.32
2018-06-01T10:28:51.433Z,29.36
2018-06-01T10:29:51.461Z,29.51
2018-06-01T10:30:51.494Z,29.55
2018-06-01T10:31:51.523Z,29.57
2018-06-01T10:32:51.562Z,29.66
2018-06-01T10:33:51.590Z,29.88
2018-06-01T10:34:51.623Z,29.99
2018-06-01T10:35:51.656Z,30.04
2018-06-01T10:36:51.678Z,30.01
2018-06-01T10:37:51.713Z,30.10
2018-06-01T10:38:51.746Z,30.06
2018-06-01T10:39:51.775Z,30.13
2018-06-01T10:40:51.804Z,29.91
2018-06-01T10:41:51.840Z,30.06
2018-06-01T10:42:51.869Z,30.06
2018-06-01T10:43:51.904Z,30.06
2018-06-01T10:44:51.930Z,30.08
2018-06-01T10:45:51.969Z,30.10
2018-06-01T10:46:51.994Z,30.28
2018-06-01T10:47:52.026Z,30.34
2018-06-01T10:48:52.059Z,30.45
2018-06-01T10:49:52.093Z,30.42
2018-06-01T10:50:52.119Z,30.53
2018-06-01T10:51:52.151Z,30.54
2018-06-01T10:52:52.180Z,30.67
2018-06-01T10:53:52.221Z,30.85
2018-06-01T10:54:52.247Z,31.00
2018-06-01T10:55:52.281Z,31.04
2018-06-01T10:56:52.308Z,31.15
2018-06-01T10:57:52.336Z,31.22
2018-06-01T10:58:52.368Z,31.31
2018-06-01T10:59:52.401Z,31.37
2018-06-01T11:00:52.432Z,31.37
2018-06-01T11:01:52.470Z,31.52
2018-06-01T11:02:52.498Z,31.72
2018-06-01T11:03:52.543Z,31.92
2018-06-01T11:04:52.562Z,32.17
2018-06-01T11:05:52.602Z,32.36
2018-06-01T11:06:52.629Z,32.87
2018-06-01T11:07:52.668Z,33.26
2018-06-01T11:08:52.695Z,33.87
2018-06-01T11:09:52.729Z,34.69
2018-06-01T11:10:52.761Z,35.40
2018-06-01T11:11:52.795Z,36.16
2018-06-01T11:12:52.829Z,36.90
2018-06-01T11:13:52.861Z,37.24
2018-06-01T11:14:52.896Z,37.87
2018-06-01T11:15:52.938Z,38.25
2018-06-01T11:16:52.977Z,38.63
2018-06-01T11:17:53.002Z,38.68
2018-06-01T11:18:53.039Z,38.43
2018-06-01T11:19:53.077Z,38.84
2018-06-01T11:20:53.115Z,38.97
2018-06-01T11:21:53.150Z,38.79
2018-06-01T11:22:53.193Z,39.14
2018-06-01T11:23:53.220Z,39.68
2018-06-01T11:24:53.258Z,39.97
2018-06-01T11:25:53.292Z,40.09
2018-06-01T11:26:53.333Z,40.18
2018-06-01T11:27:53.367Z,40.51
2018-06-01T11:28:53.402Z,40.33
2018-06-01T11:29:53.441Z,39.34
2018-06-01T11:30:53.478Z,40.07
2018-06-01T11:31:53.517Z,39.53
2018-06-01T11:32:53.552Z,39.97
2018-06-01T11:33:53.596Z,40.09
2018-06-01T11:34:53.627Z,40.44
2018-06-01T11:35:53.663Z,41.01
2018-06-01T11:36:53.705Z,40.63
2018-06-01T11:37:53.749Z,40.24
2018-06-01T11:38:53.779Z,40.25
2018-06-01T11:39:53.827Z,40.31
2018-06-01T11:40:53.855Z,40.48
2018-06-01T11:41:53.902Z,40.33
2018-06-01T11:42:53.931Z,40.42
2018-06-01T11:43:53.971Z,40.49
2018-06-01T11:44:54.006Z,40.41
2018-06-01T11:45:54.054Z,41.05
2018-06-01T11:46:54.092Z,40.76
2018-06-01T11:47:54.125Z,40.92
2018-06-01T11:48:54.166Z,41.17
2018-06-01T11:49:54.211Z,41.36
2018-06-01T11:50:54.252Z,41.38
2018-06-01T11:51:54.289Z,41.80
2018-06-01T11:52:54.321Z,41.50
2018-06-01T11:53:54.363Z,40.88
2018-06-01T11:54:54.401Z,41.33
2018-06-01T11:55:54.440Z,41.46
2018-06-01T11:56:54.475Z,41.97
2018-06-01T11:57:54.520Z,42.26
2018-06-01T11:58:54.558Z,42.58
2018-06-01T11:59:54.600Z,42.68
2018-06-01T12:00:54.639Z,42.64
2018-06-01T12:01:54.683Z,41.96
2018-06-01T12:02:54.716Z,40.97
2018-06-01T12:03:54.758Z,40.48
2018-06-01T12:04:54.795Z,39.68
2018-06-01T12:05:54.832Z,39.92
2018-06-01T12:06:54.871Z,40.28
2018-06-01T12:07:54.915Z,40.58
2018-06-01T12:08:54.961Z,40.68
2018-06-01T12:09:54.995Z,40.48
2018-06-01T12:10:55.078Z,40.71
2018-06-01T12:11:55.073Z,40.91
2018-06-01T12:12:55.110Z,40.94
2018-06-01T12:13:55.156Z,40.78
2018-06-01T12:14:55.190Z,40.34
2018-06-01T12:15:55.238Z,39.88
2018-06-01T12:16:55.275Z,39.81
2018-06-01T12:17:55.312Z,39.28
2018-06-01T12:18:55.356Z,39.02
2018-06-01T12:19:55.394Z,38.60
2018-06-01T12:20:55.431Z,38.14
2018-06-01T12:21:55.465Z,37.95
2018-06-01T12:22:55.521Z,38.02
2018-06-01T12:23:55.555Z,38.10
2018-06-01T12:24:55.586Z,38.21
2018-06-01T12:25:55.621Z,38.40
2018-06-01T12:26:55.665Z,38.62
2018-06-01T12:27:55.700Z,38.79
2018-06-01T12:28:55.738Z,39.20
2018-06-01T12:29:55.777Z,39.66
2018-06-01T12:30:55.816Z,39.76
2018-06-01T12:31:55.859Z,39.76
2018-06-01T12:32:55.893Z,40.09
2018-06-01T12:33:55.933Z,39.59
2018-06-01T12:34:55.971Z,39.92
2018-06-01T12:35:56.009Z,39.81
2018-06-01T12:36:56.057Z,40.03
2018-06-01T12:37:56.088Z,40.36
2018-06-01T12:38:56.137Z,41.26
2018-06-01T12:39:56.174Z,41.54
2018-06-01T12:40:56.203Z,41.33
2018-06-01T12:41:56.239Z,41.42
2018-06-01T12:42:56.280Z,41.46
2018-06-01T12:43:56.329Z,41.13
2018-06-01T12:44:56.358Z,41.23
2018-06-01T12:45:56.398Z,41.29
2018-06-01T12:46:56.440Z,41.31
2018-06-01T12:47:56.479Z,41.02
2018-06-01T12:48:56.526Z,41.02
2018-06-01T12:49:56.556Z,41.21
2018-06-01T12:50:56.600Z,41.58
2018-06-01T12:51:56.634Z,41.58
2018-06-01T12:52:56.675Z,42.05